Terminal Aerodrome Forecast
Issued by NWS

Home | Current Version | Previous Version | Text Only | Print | Product List | Glossary On
Versions: 1 2 3 4 5 6 7 8 9 10 11 12
161
FTUS46 KHNX 301740
TAFBFL
TAF
KBFL 301740Z 3018/3118 32011KT P6SM FEW200
     FM310200 35007KT P6SM FEW200
     FM310600 VRB04KT P6SM FEW200=

USA.gov is the U.S. government's official web portal to all federal, state and local government web resources and services.